Terminal Aerodrome Forecast
Issued by NWS

Home | Current Version | Previous Version | Text Only | Print | Product List | Glossary On
Versions: 1 2 3 4 5 6 7 8 9 10 11 12 13 14 15 16 17 18 19 20 21 22 23 24 25 26 27
888
FTUS43 KDVN 170602 AAA
TAFCID
TAF AMD
KCID 170602Z 1706/1806 29008KT P6SM BKN008
      TEMPO 1706/1710 SCT008
     FM171000 25009KT P6SM SKC
     FM171500 23010KT P6SM SKC
     FM171800 23012G20KT P6SM SKC
     FM180000 22012KT P6SM SKC=

USA.gov is the U.S. government's official web portal to all federal, state and local government web resources and services.